createdAt,value
2022-11-18T00:03:41.334Z,11.00
2022-11-18T00:08:44.601Z,14.00
2022-11-18T00:13:52.626Z,12.00
2022-11-18T00:18:55.524Z,10.67
2022-11-18T00:29:19.465Z,12.33
2022-11-18T00:34:22.713Z,11.00
2022-11-18T00:55:34.215Z,11.00
2022-11-18T01:05:58.839Z,12.25
2022-11-18T01:11:01.672Z,13.50
2022-11-18T01:16:04.534Z,14.25
2022-11-18T01:32:22.324Z,8.75
2022-11-18T01:37:15.783Z,13.25
2022-11-18T01:47:44.169Z,13.75
2022-11-18T01:58:13.213Z,19.50
2022-11-18T02:08:37.055Z,14.00
2022-11-18T02:13:39.842Z,15.50
2022-11-18T02:18:48.946Z,13.75
2022-11-18T02:24:22.110Z,13.25
2022-11-18T02:29:35.082Z,17.50
2022-11-18T02:34:47.083Z,16.50
2022-11-18T02:39:59.450Z,15.25
2022-11-18T02:50:37.597Z,9.00
2022-11-18T02:55:42.768Z,12.00
2022-11-18T03:00:45.964Z,12.75
2022-11-18T03:11:24.941Z,7.75
2022-11-18T03:16:33.020Z,14.50
2022-11-18T03:21:42.239Z,13.00
2022-11-18T03:26:54.938Z,10.75
2022-11-18T03:32:04.805Z,13.50
2022-11-18T03:37:12.725Z,10.75
2022-11-18T03:42:27.292Z,9.75
2022-11-18T03:52:56.965Z,12.00
2022-11-18T03:58:06.466Z,7.00
2022-11-18T04:08:36.788Z,13.00
2022-11-18T04:13:39.953Z,12.50
2022-11-18T04:18:42.699Z,13.50
2022-11-18T04:23:51.320Z,13.00
2022-11-18T04:28:54.261Z,17.00
2022-11-18T04:33:57.207Z,13.00
2022-11-18T04:39:06.557Z,10.50
2022-11-18T04:44:09.274Z,14.50
2022-11-18T04:49:15.357Z,11.00
2022-11-18T04:54:24.418Z,10.50
2022-11-18T04:59:29.320Z,7.00
2022-11-18T05:04:34.468Z,5.50
2022-11-18T05:14:59.839Z,10.25
2022-11-18T05:30:37.431Z,9.00
2022-11-18T05:35:40.218Z,7.00
2022-11-18T05:40:43.875Z,11.25
2022-11-18T05:45:53.072Z,10.75
2022-11-18T05:50:56.343Z,7.50
2022-11-18T05:56:06.046Z,8.50
2022-11-18T06:01:17.752Z,8.00
2022-11-18T06:06:23.605Z,7.25
2022-11-18T06:11:26.833Z,8.75
2022-11-18T06:16:40.966Z,9.00
2022-11-18T06:21:44.706Z,11.25
2022-11-18T06:32:22.238Z,9.50
2022-11-18T06:37:26.263Z,5.25
2022-11-18T06:42:30.247Z,1.75
2022-11-18T06:47:39.459Z,8.25
2022-11-18T06:52:42.250Z,1.25
2022-11-18T06:57:45.352Z,6.25
2022-11-18T07:02:54.423Z,5.00
2022-11-18T07:13:07.338Z,4.00
2022-11-18T07:18:16.175Z,1.50
2022-11-18T07:23:18.976Z,4.25
2022-11-18T07:39:09.223Z,1.67
2022-11-18T07:49:38.728Z,1.00
2022-11-18T07:54:41.655Z,0.33
2022-11-18T07:59:44.497Z,1.00
2022-11-18T08:04:52.577Z,3.33
2022-11-18T08:15:22.799Z,0.00
2022-11-18T08:20:25.576Z,1.00
2022-11-18T08:30:47.420Z,1.00
2022-11-18T08:35:50.386Z,1.00
2022-11-18T08:40:53.613Z,0.67
2022-11-18T08:46:02.713Z,0.00
2022-11-18T09:17:33.444Z,0.00
2022-11-18T09:22:38.582Z,0.00
2022-11-18T09:27:41.625Z,0.00
2022-11-18T09:32:49.868Z,0.00
2022-11-18T09:43:27.495Z,0.00
2022-11-18T09:48:31.481Z,0.75
2022-11-18T09:53:34.544Z,1.00
2022-11-18T09:58:44.642Z,0.00
2022-11-18T10:14:59.820Z,0.00
2022-11-18T10:35:42.167Z,0.00
2022-11-18T10:51:06.354Z,1.00
2022-11-18T11:17:05.087Z,0.50
2022-11-18T11:38:59.967Z,1.00
2022-11-18T11:44:23.517Z,1.00
2022-11-18T11:49:45.482Z,0.50
2022-11-18T11:55:03.994Z,0.75
2022-11-18T12:21:57.596Z,1.00
2022-11-18T12:37:48.688Z,1.00
2022-11-18T13:13:56.121Z,1.67
2022-11-18T13:19:09.431Z,0.00
2022-11-18T13:44:45.115Z,0.00
2022-11-18T13:50:03.851Z,0.00
2022-11-18T13:55:19.735Z,0.00
2022-11-18T14:05:55.305Z,0.00
2022-11-18T14:10:59.752Z,0.00
2022-11-18T14:16:05.009Z,0.00
2022-11-18T14:21:14.516Z,0.00
2022-11-18T14:26:31.468Z,0.00
2022-11-18T14:31:34.341Z,0.00
2022-11-18T14:36:42.678Z,0.00
2022-11-18T14:41:45.695Z,0.00
2022-11-18T14:46:50.870Z,0.00
2022-11-18T14:52:00.971Z,0.67
2022-11-18T15:02:23.956Z,0.67
2022-11-18T15:07:26.810Z,1.00
2022-11-18T15:12:29.696Z,0.67
2022-11-18T15:22:58.546Z,1.00
2022-11-18T15:28:01.347Z,0.33
2022-11-18T15:33:05.399Z,0.33
2022-11-18T15:38:14.129Z,0.33
2022-11-18T15:43:17.106Z,0.33
2022-11-18T15:48:19.983Z,0.33
2022-11-18T15:58:36.252Z,1.00
2022-11-18T16:09:08.298Z,0.00
2022-11-18T16:14:13.225Z,1.00
2022-11-18T16:19:18.126Z,0.00
2022-11-18T16:24:29.277Z,1.00
2022-11-18T16:29:32.057Z,0.00
2022-11-18T16:34:34.954Z,0.00
2022-11-18T16:39:43.047Z,0.00
2022-11-18T16:44:46.079Z,0.67
2022-11-18T16:49:48.874Z,1.00
2022-11-18T16:54:57.434Z,0.67
2022-11-18T17:00:02.196Z,2.00
2022-11-18T17:05:05.255Z,0.00
2022-11-18T17:10:13.608Z,0.00
2022-11-18T17:15:16.487Z,0.67
2022-11-18T17:20:19.477Z,1.33
2022-11-18T17:25:29.558Z,2.00
2022-11-18T17:30:32.309Z,1.00
2022-11-18T17:35:35.075Z,1.00
2022-11-18T17:46:06.098Z,1.00
2022-11-18T17:51:08.837Z,0.00
2022-11-18T18:12:08.878Z,1.00
2022-11-18T18:17:12.790Z,8.67
2022-11-18T18:32:52.376Z,0.00
2022-11-18T18:59:13.311Z,12.00
2022-11-18T19:09:39.169Z,1.33
2022-11-18T19:14:42.990Z,7.00
2022-11-18T19:19:45.942Z,5.00
2022-11-18T19:24:57.441Z,4.67
2022-11-18T19:30:01.059Z,1.00
2022-11-18T19:40:26.579Z,4.00
2022-11-18T19:50:51.691Z,4.00
2022-11-18T19:55:56.621Z,4.00
2022-11-18T20:01:00.603Z,5.00
2022-11-18T20:06:11.215Z,9.33
2022-11-18T20:11:15.671Z,8.00
2022-11-18T20:16:21.355Z,13.75
2022-11-18T20:21:30.514Z,12.75
2022-11-18T20:26:35.310Z,10.67
2022-11-18T20:31:38.504Z,8.00
2022-11-18T20:36:47.597Z,4.25
2022-11-18T20:47:13.246Z,11.00
2022-11-18T20:52:17.190Z,5.00
2022-11-18T21:13:14.015Z,3.00
2022-11-18T21:29:03.150Z,6.50
2022-11-18T21:34:07.493Z,3.33
2022-11-18T21:39:12.971Z,2.00
2022-11-18T21:44:21.261Z,3.50
2022-11-18T21:49:24.587Z,6.50
2022-11-18T21:54:27.574Z,6.50
2022-11-18T21:59:37.600Z,7.25
2022-11-18T22:04:42.998Z,10.00
2022-11-18T22:09:46.687Z,5.00
2022-11-18T22:14:55.802Z,7.25
2022-11-18T22:19:59.522Z,6.50
2022-11-18T22:25:02.275Z,11.00
2022-11-18T22:35:24.659Z,8.25
2022-11-18T22:40:28.715Z,7.25
2022-11-18T22:45:32.533Z,10.50
2022-11-18T22:50:48.859Z,2.50
2022-11-18T23:06:34.387Z,5.00
2022-11-18T23:11:37.148Z,10.00
2022-11-18T23:16:41.861Z,7.00
2022-11-18T23:21:51.064Z,7.00
2022-11-18T23:26:53.790Z,4.75
2022-11-18T23:31:56.672Z,1.50
2022-11-18T23:37:05.616Z,3.75
2022-11-18T23:42:09.521Z,3.50
2022-11-18T23:47:12.246Z,5.00
2022-11-18T23:52:21.265Z,4.00
2022-11-18T23:57:24.022Z,4.25
